Time;durP1;ratioP1;P1;durP2;ratioP2;P2;SDS_P1;SDS_P2;PMS_P1;PMS_P2;Temp;Humidity;BMP_temperature;BMP_pressure;BME280_temperature;BME280_humidity;BME280_pressure;Samples;Min_cycle;Max_cycle;Signal;HPM_P1;HPM_P2
2022/11/02 00:01:34;;;;;;;;;;;;;;;;;;6264470;22;19915;-89
2022/11/02 00:04:05;;;;;;;;;;;;;;;;;;6239346;22;19919;-89
2022/11/02 00:06:38;;;;;;;;;;;;;;;;;;6264256;22;20275;-88
2022/11/02 00:09:04;;;;;;;;;;;;;;;;;;6240049;22;20610;-89
2022/11/02 00:11:32;;;;;;;;;;;;;;;;;;6236425;22;19925;-89
2022/11/02 00:13:59;;;;;;;;;;;;;;;;;;6266262;22;20240;-89
2022/11/02 00:16:25;;;;;;;;;;;;;;;;;;6263124;22;19919;-89
2022/11/02 00:18:55;;;;;;;;;;;;;;;;;;6239333;22;19915;-90
2022/11/02 00:21:21;;;;;;;;;;;;;;;;;;6236669;22;19947;-90
2022/11/02 00:23:48;;;;;;;;;;;;;;;;;;6234965;22;20433;-89
2022/11/02 00:26:18;;;;;;;;;;;;;;;;;;6237580;22;20000;-90
2022/11/02 00:28:45;;;;;;;;;;;;;;;;;;6239487;22;20320;-90
2022/11/02 00:31:12;;;;;;;;;;;;;;;;;;6264412;22;19919;-89
2022/11/02 00:33:41;;;;;;;;;;;;;;;;;;6239354;22;19930;-89
2022/11/02 00:36:08;;;;;;;;;;;;;;;;;;6237184;22;19923;-89
2022/11/02 00:38:34;;;;;;;;;;;;;;;;;;6238661;22;19919;-89
2022/11/02 00:41:00;;;;;;;;;;;;;;;;;;6238427;22;19973;-88
2022/11/02 00:43:29;;;;;;;;;;;;;;;;;;6261105;22;19923;-89
2022/11/02 00:45:58;;;;;;;;;;;;;;;;;;6241202;22;19915;-89
2022/11/02 00:48:24;;;;;;;;;;;;;;;;;;6260992;22;20344;-88
2022/11/02 00:50:51;;;;;;;;;;;;;;;;;;6236899;22;20085;-88
2022/11/02 00:53:18;;;;;;;;;;;;;;;;;;6236796;22;19919;-89
2022/11/02 00:55:46;;;;;;;;;;;;;;;;;;6262340;22;19994;-88
2022/11/02 00:58:12;;;;;;;;;;;;;;;;;;6233262;22;19969;-89
2022/11/02 01:00:39;;;;;;;;;;;;;;;;;;6239336;22;19922;-88
2022/11/02 01:03:07;;;;;;;;;;;;;;;;;;6240113;22;20352;-88
2022/11/02 01:05:33;;;;;;;;;;;;;;;;;;6263004;22;19973;-87
2022/11/02 01:07:59;;;;;;;;;;;;;;;;;;6236315;22;20381;-87
2022/11/02 01:10:26;;;;;;;;;;;;;;;;;;6262906;22;19965;-88
2022/11/02 01:12:52;;;;;;;;;;;;;;;;;;6265100;22;19926;-87
2022/11/02 01:15:18;;;;;;;;;;;;;;;;;;6234889;22;20631;-88
2022/11/02 01:17:43;;;;;;;;;;;;;;;;;;6243066;22;19926;-88
2022/11/02 01:20:09;;;;;;;;;;;;;;;;;;6249839;22;20000;-88
2022/11/02 01:22:35;;;;;;;;;;;;;;;;;;6266313;22;19945;-89
2022/11/02 01:25:01;;;;;;;;;;;;;;;;;;6239991;22;19922;-88
2022/11/02 01:27:27;;;;;;;;;;;;;;;;;;6235896;22;19923;-88
2022/11/02 01:29:53;;;;;;;;;;;;;;;;;;6237957;22;19968;-88
2022/11/02 01:32:19;;;;;;;;;;;;;;;;;;6261764;22;19927;-88
2022/11/02 01:34:45;;;;;;;;;;;;;;;;;;6237609;22;19980;-88
2022/11/02 01:37:11;;;;;;;;;;;;;;;;;;6237363;22;19968;-88
2022/11/02 01:39:37;;;;;;;;;;;;;;;;;;6236806;22;20033;-88
2022/11/02 01:42:03;;;;;;;;;;;;;;;;;;6262712;22;19926;-87
2022/11/02 01:44:29;;;;;;;;;;;;;;;;;;6262008;22;19926;-87
2022/11/02 01:46:56;;;;;;;;;;;;;;;;;;6237430;22;20167;-88
2022/11/02 01:49:25;;;;;;;;;;;;;;;;;;6263738;22;19915;-88
2022/11/02 01:51:51;;;;;;;;;;;;;;;;;;6257135;22;19923;-88
2022/11/02 01:54:17;;;;;;;;;;;;;;;;;;6224119;22;20338;-89
2022/11/02 01:56:43;;;;;;;;;;;;;;;;;;6239794;22;19980;-90
2022/11/02 01:59:09;;;;;;;;;;;;;;;;;;6287050;22;19930;-89
2022/11/02 02:01:35;;;;;;;;;;;;;;;;;;6292399;22;19930;-89
2022/11/02 02:04:01;;;;;;;;;;;;;;;;;;6291712;22;19907;-88
2022/11/02 02:06:29;;;;;;;;;;;;;;;;;;6264597;22;19923;-88
2022/11/02 02:08:55;;;;;;;;;;;;;;;;;;6267314;22;19914;-88
2022/11/02 02:11:21;;;;;;;;;;;;;;;;;;6288182;22;19923;-89
2022/11/02 02:13:47;;;;;;;;;;;;;;;;;;6291442;22;20610;-89
2022/11/02 02:16:13;;;;;;;;;;;;;;;;;;6264313;22;19915;-88
2022/11/02 02:18:39;;;;;;;;;;;;;;;;;;6266571;22;19903;-89
2022/11/02 02:21:05;;;;;;;;;;;;;;;;;;6265065;22;19923;-88
2022/11/02 02:23:31;;;;;;;;;;;;;;;;;;6259401;22;19933;-88
2022/11/02 02:25:57;;;;;;;;;;;;;;;;;;6261788;22;19915;-89
2022/11/02 02:28:24;;;;;;;;;;;;;;;;;;6246132;22;19915;-87
2022/11/02 02:30:52;;;;;;;;;;;;;;;;;;6265408;22;19924;-88
2022/11/02 02:33:18;;;;;;;;;;;;;;;;;;6262109;22;19991;-89
2022/11/02 02:35:44;;;;;;;;;;;;;;;;;;6263794;22;19955;-88
2022/11/02 02:38:10;;;;;;;;;;;;;;;;;;6238071;22;19919;-88
2022/11/02 02:40:36;;;;;;;;;;;;;;;;;;6263246;22;19930;-87
2022/11/02 02:43:02;;;;;;;;;;;;;;;;;;6236737;22;19919;-88
2022/11/02 02:45:28;;;;;;;;;;;;;;;;;;6238624;22;19946;-89
2022/11/02 02:47:54;;;;;;;;;;;;;;;;;;6266200;22;19915;-88
2022/11/02 02:50:20;;;;;;;;;;;;;;;;;;6263673;22;20534;-88
2022/11/02 02:52:46;;;;;;;;;;;;;;;;;;6241928;22;19919;-88
2022/11/02 02:55:12;;;;;;;;;;;;;;;;;;6283907;22;19922;-88
2022/11/02 02:57:38;;;;;;;;;;;;;;;;;;6271509;22;19914;-88
2022/11/02 03:00:04;;;;;;;;;;;;;;;;;;6244396;22;19915;-88
2022/11/02 03:02:30;;;;;;;;;;;;;;;;;;6267772;22;19989;-88
2022/11/02 03:04:56;;;;;;;;;;;;;;;;;;6270996;22;19922;-88
2022/11/02 03:07:22;;;;;;;;;;;;;;;;;;6268410;22;19919;-88
2022/11/02 03:09:48;;;;;;;;;;;;;;;;;;6245465;22;20983;-88
2022/11/02 03:12:14;;;;;;;;;;;;;;;;;;6241299;22;19918;-88
2022/11/02 03:14:43;;;;;;;;;;;;;;;;;;6270412;22;19915;-88
2022/11/02 03:17:09;;;;;;;;;;;;;;;;;;6243221;22;19953;-88
2022/11/02 03:19:35;;;;;;;;;;;;;;;;;;6268897;22;20389;-88
2022/11/02 03:22:01;;;;;;;;;;;;;;;;;;6266824;22;19919;-88
2022/11/02 03:24:27;;;;;;;;;;;;;;;;;;6239561;22;19919;-88
2022/11/02 03:26:55;;;;;;;;;;;;;;;;;;6242269;22;19919;-88
2022/11/02 03:29:21;;;;;;;;;;;;;;;;;;6240745;22;19918;-88
2022/11/02 03:31:47;;;;;;;;;;;;;;;;;;6242071;22;19923;-89
2022/11/02 03:34:13;;;;;;;;;;;;;;;;;;6239609;22;19993;-89
2022/11/02 03:36:39;;;;;;;;;;;;;;;;;;6266183;22;19946;-88
2022/11/02 03:39:08;;;;;;;;;;;;;;;;;;6266846;22;19922;-88
2022/11/02 03:41:34;;;;;;;;;;;;;;;;;;6241992;22;19915;-88
2022/11/02 03:44:01;;;;;;;;;;;;;;;;;;6269029;22;19946;-88
2022/11/02 03:46:27;;;;;;;;;;;;;;;;;;6266738;22;19918;-88
2022/11/02 03:48:53;;;;;;;;;;;;;;;;;;6244322;22;19952;-88
2022/11/02 03:51:18;;;;;;;;;;;;;;;;;;6242466;22;19919;-89
2022/11/02 03:53:44;;;;;;;;;;;;;;;;;;6245728;22;19925;-89
2022/11/02 03:56:10;;;;;;;;;;;;;;;;;;6269337;22;19993;-89
2022/11/02 03:58:36;;;;;;;;;;;;;;;;;;6267367;22;20436;-89
2022/11/02 04:01:02;;;;;;;;;;;;;;;;;;6242361;22;19915;-89
2022/11/02 04:03:28;;;;;;;;;;;;;;;;;;6239950;22;19925;-89
2022/11/02 04:05:54;;;;;;;;;;;;;;;;;;6240190;22;19918;-88
2022/11/02 04:08:20;;;;;;;;;;;;;;;;;;6239607;22;19919;-88
2022/11/02 04:16:19;;;;;;;;;;;;;;;;;;6263475;22;19919;-88
2022/11/02 04:21:30;;;;;;;;;;;;;;;;;;6263968;22;19918;-88
2022/11/02 04:26:41;;;;;;;;;;;;;;;;;;6267877;22;19922;-89
2022/11/02 04:29:07;;;;;;;;;;;;;;;;;;6267829;22;19947;-89
2022/11/02 04:31:33;;;;;;;;;;;;;;;;;;6266533;22;19930;-89
2022/11/02 04:33:59;;;;;;;;;;;;;;;;;;6242631;22;19965;-88
2022/11/02 04:36:25;;;;;;;;;;;;;;;;;;6264220;22;19927;-88
2022/11/02 04:38:51;;;;;;;;;;;;;;;;;;6242939;22;19919;-88
2022/11/02 04:44:02;;;;;;;;;;;;;;;;;;6296243;22;19918;-88
2022/11/02 04:46:28;;;;;;;;;;;;;;;;;;6239515;22;20475;-88
2022/11/02 04:48:54;;;;;;;;;;;;;;;;;;6269556;22;20332;-88
2022/11/02 04:51:20;;;;;;;;;;;;;;;;;;6236507;22;19958;-88
2022/11/02 04:53:46;;;;;;;;;;;;;;;;;;6240123;22;19926;-88
2022/11/02 04:56:12;;;;;;;;;;;;;;;;;;6265113;22;20316;-88
2022/11/02 04:58:38;;;;;;;;;;;;;;;;;;6246398;22;19985;-88
2022/11/02 05:01:05;;;;;;;;;;;;;;;;;;6268488;22;19919;-88
2022/11/02 05:03:31;;;;;;;;;;;;;;;;;;6292119;22;19918;-88
2022/11/02 05:05:57;;;;;;;;;;;;;;;;;;6271234;22;19926;-89
2022/11/02 05:08:23;;;;;;;;;;;;;;;;;;6245150;22;19937;-88
2022/11/02 05:10:49;;;;;;;;;;;;;;;;;;6245927;22;19923;-88
2022/11/02 05:13:15;;;;;;;;;;;;;;;;;;6241183;22;19919;-88
2022/11/02 05:15:41;;;;;;;;;;;;;;;;;;6271495;22;19960;-88
2022/11/02 05:18:07;;;;;;;;;;;;;;;;;;6245784;22;19919;-89
2022/11/02 05:20:35;;;;;;;;;;;;;;;;;;6242366;22;19933;-88
2022/11/02 05:23:01;;;;;;;;;;;;;;;;;;6269744;22;19922;-88
2022/11/02 05:25:27;;;;;;;;;;;;;;;;;;6242333;22;20581;-88
2022/11/02 05:27:53;;;;;;;;;;;;;;;;;;6269353;22;19915;-89
2022/11/02 05:30:19;;;;;;;;;;;;;;;;;;6268991;22;19926;-89
2022/11/02 05:32:45;;;;;;;;;;;;;;;;;;6241194;22;20263;-89
2022/11/02 05:35:11;;;;;;;;;;;;;;;;;;6242086;22;19918;-89
2022/11/02 05:37:37;;;;;;;;;;;;;;;;;;6243394;22;19926;-88
2022/11/02 05:40:03;;;;;;;;;;;;;;;;;;6269400;22;19985;-89
2022/11/02 05:42:29;;;;;;;;;;;;;;;;;;6239261;22;19918;-89
2022/11/02 05:44:55;;;;;;;;;;;;;;;;;;6238128;22;19950;-88
2022/11/02 05:47:21;;;;;;;;;;;;;;;;;;6238868;22;19956;-88
2022/11/02 05:49:47;;;;;;;;;;;;;;;;;;6242169;22;19919;-88
2022/11/02 05:52:14;;;;;;;;;;;;;;;;;;6292263;22;19919;-89
2022/11/02 05:54:40;;;;;;;;;;;;;;;;;;6258276;22;19923;-88
2022/11/02 05:57:09;;;;;;;;;;;;;;;;;;6236287;22;19966;-88
2022/11/02 05:59:37;;;;;;;;;;;;;;;;;;6238087;22;20247;-88
2022/11/02 06:02:03;;;;;;;;;;;;;;;;;;6260405;22;19919;-89
2022/11/02 06:04:29;;;;;;;;;;;;;;;;;;6234794;22;19927;-88
2022/11/02 06:06:55;;;;;;;;;;;;;;;;;;6262242;22;20331;-89
2022/11/02 06:09:21;;;;;;;;;;;;;;;;;;6258896;22;19966;-88
2022/11/02 06:11:47;;;;;;;;;;;;;;;;;;6261589;22;19994;-88
2022/11/02 06:14:13;;;;;;;;;;;;;;;;;;6237295;22;19919;-89
2022/11/02 06:16:39;;;;;;;;;;;;;;;;;;6261920;22;19919;-89
2022/11/02 06:19:05;;;;;;;;;;;;;;;;;;6237337;22;20714;-89
2022/11/02 06:21:34;;;;;;;;;;;;;;;;;;6236063;22;19921;-88
2022/11/02 06:24:00;;;;;;;;;;;;;;;;;;6234954;22;19943;-88
2022/11/02 06:26:26;;;;;;;;;;;;;;;;;;6237608;22;20366;-88
2022/11/02 06:28:52;;;;;;;;;;;;;;;;;;6239268;22;19919;-88
2022/11/02 06:31:18;;;;;;;;;;;;;;;;;;6236034;22;19994;-87
2022/11/02 06:33:44;;;;;;;;;;;;;;;;;;6238522;22;19946;-88
2022/11/02 06:36:10;;;;;;;;;;;;;;;;;;6235358;22;20343;-88
2022/11/02 06:38:45;;;;;;;;;;;;;;;;;;6262146;22;19919;-87
2022/11/02 06:41:27;;;;;;;;;;;;;;;;;;6264852;22;19927;-88
2022/11/02 06:44:01;;;;;;;;;;;;;;;;;;6240412;22;19923;-88
2022/11/02 06:46:27;;;;;;;;;;;;;;;;;;6261817;22;19930;-87
2022/11/02 06:48:58;;;;;;;;;;;;;;;;;;6237783;22;19919;-89
2022/11/02 06:51:24;;;;;;;;;;;;;;;;;;6259665;22;19923;-89
2022/11/02 06:53:50;;;;;;;;;;;;;;;;;;6240756;22;20287;-86
2022/11/02 06:56:17;;;;;;;;;;;;;;;;;;6239753;22;20232;-87
2022/11/02 06:58:43;;;;;;;;;;;;;;;;;;6243881;22;19921;-88
2022/11/02 07:01:09;;;;;;;;;;;;;;;;;;6264698;22;20013;-87
2022/11/02 07:03:35;;;;;;;;;;;;;;;;;;6267495;22;19919;-87
2022/11/02 07:06:01;;;;;;;;;;;;;;;;;;6242503;22;20003;-86
2022/11/02 07:08:27;;;;;;;;;;;;;;;;;;6240203;22;20370;-87
2022/11/02 07:10:53;;;;;;;;;;;;;;;;;;6238550;22;19923;-86
2022/11/02 07:13:19;;;;;;;;;;;;;;;;;;6238761;22;20392;-87
2022/11/02 07:15:45;;;;;;;;;;;;;;;;;;6243506;22;20002;-88
2022/11/02 07:18:11;;;;;;;;;;;;;;;;;;6242803;22;20376;-87
2022/11/02 07:20:37;;;;;;;;;;;;;;;;;;6243341;22;19941;-87
2022/11/02 07:23:03;;;;;;;;;;;;;;;;;;6267050;22;20014;-87
2022/11/02 07:25:32;;;;;;;;;;;;;;;;;;6264221;22;19919;-87
2022/11/02 07:27:59;;;;;;;;;;;;;;;;;;6265175;22;20391;-87
2022/11/02 07:30:25;;;;;;;;;;;;;;;;;;6238025;22;19996;-87
2022/11/02 07:32:51;;;;;;;;;;;;;;;;;;6263819;22;19924;-87
2022/11/02 07:35:17;;;;;;;;;;;;;;;;;;6262474;22;20526;-87
2022/11/02 07:37:43;;;;;;;;;;;;;;;;;;6241907;22;19994;-87
2022/11/02 07:40:09;;;;;;;;;;;;;;;;;;6239003;22;19957;-87
2022/11/02 07:42:35;;;;;;;;;;;;;;;;;;6267741;22;19919;-87
2022/11/02 07:45:01;;;;;;;;;;;;;;;;;;6266149;22;20229;-86
2022/11/02 07:47:27;;;;;;;;;;;;;;;;;;6264915;22;19918;-87
2022/11/02 07:49:53;;;;;;;;;;;;;;;;;;6241288;22;19925;-88
2022/11/02 07:52:19;;;;;;;;;;;;;;;;;;6238629;22;19926;-87
2022/11/02 07:54:45;;;;;;;;;;;;;;;;;;6244343;22;20367;-86
2022/11/02 07:57:11;;;;;;;;;;;;;;;;;;6263964;22;19968;-87
2022/11/02 07:59:37;;;;;;;;;;;;;;;;;;6295781;22;19919;-86
2022/11/02 08:02:03;;;;;;;;;;;;;;;;;;6266561;22;19995;-87
2022/11/02 08:04:29;;;;;;;;;;;;;;;;;;6239052;22;19980;-86
2022/11/02 08:06:55;;;;;;;;;;;;;;;;;;6265557;22;19925;-87
2022/11/02 08:09:21;;;;;;;;;;;;;;;;;;6266414;22;20368;-87
2022/11/02 08:11:47;;;;;;;;;;;;;;;;;;6241565;22;19984;-87
2022/11/02 08:14:12;;;;;;;;;;;;;;;;;;6268441;22;19942;-86
2022/11/02 08:16:38;;;;;;;;;;;;;;;;;;6267167;22;19919;-87
2022/11/02 08:19:04;;;;;;;;;;;;;;;;;;6242196;22;19915;-87
2022/11/02 08:21:30;;;;;;;;;;;;;;;;;;6239791;22;19918;-87
2022/11/02 08:23:56;;;;;;;;;;;;;;;;;;6270625;22;19968;-87
2022/11/02 08:26:22;;;;;;;;;;;;;;;;;;6265434;22;19930;-87
2022/11/02 08:28:48;;;;;;;;;;;;;;;;;;6296991;22;19919;-87
2022/11/02 08:31:14;;;;;;;;;;;;;;;;;;6241392;22;19927;-87
2022/11/02 08:33:40;;;;;;;;;;;;;;;;;;6268720;22;19926;-87
2022/11/02 08:36:06;;;;;;;;;;;;;;;;;;6266617;22;19919;-87
2022/11/02 08:38:32;;;;;;;;;;;;;;;;;;6266355;22;19926;-87
2022/11/02 08:40:58;;;;;;;;;;;;;;;;;;6240636;22;19915;-86
2022/11/02 08:43:24;;;;;;;;;;;;;;;;;;6262623;22;19964;-86
2022/11/02 08:45:50;;;;;;;;;;;;;;;;;;6266420;22;19919;-87
2022/11/02 08:48:16;;;;;;;;;;;;;;;;;;6265782;22;19925;-87
2022/11/02 08:50:42;;;;;;;;;;;;;;;;;;6241276;22;20599;-87
2022/11/02 08:53:08;;;;;;;;;;;;;;;;;;6238767;22;19993;-87
2022/11/02 08:55:34;;;;;;;;;;;;;;;;;;6236664;22;19977;-87
2022/11/02 08:58:00;;;;;;;;;;;;;;;;;;6264130;22;20252;-87
2022/11/02 09:00:26;;;;;;;;;;;;;;;;;;6259790;22;19923;-87
2022/11/02 09:02:52;;;;;;;;;;;;;;;;;;6263670;22;19915;-87
2022/11/02 09:05:18;;;;;;;;;;;;;;;;;;6235531;22;20458;-87
2022/11/02 09:07:44;;;;;;;;;;;;;;;;;;6261938;22;20002;-87
2022/11/02 09:10:10;;;;;;;;;;;;;;;;;;6236259;22;20362;-87
2022/11/02 09:12:36;;;;;;;;;;;;;;;;;;6262146;22;19923;-87
2022/11/02 09:15:02;;;;;;;;;;;;;;;;;;6237416;22;20013;-87
2022/11/02 09:17:28;;;;;;;;;;;;;;;;;;6230825;22;19919;-87
2022/11/02 09:19:54;;;;;;;;;;;;;;;;;;6261848;22;20327;-87
2022/11/02 09:22:20;;;;;;;;;;;;;;;;;;6235672;22;19925;-88
2022/11/02 09:24:46;;;;;;;;;;;;;;;;;;6265329;22;20419;-88
2022/11/02 09:27:12;;;;;;;;;;;;;;;;;;6267433;22;19915;-88
2022/11/02 09:29:38;;;;;;;;;;;;;;;;;;6244481;22;19915;-87
2022/11/02 09:32:04;;;;;;;;;;;;;;;;;;6239523;22;19990;-88
2022/11/02 09:34:30;;;;;;;;;;;;;;;;;;6235964;22;19923;-88
2022/11/02 09:36:56;;;;;;;;;;;;;;;;;;6263671;22;19923;-89
2022/11/02 09:39:23;;;;;;;;;;;;;;;;;;6236171;22;19955;-88
2022/11/02 09:41:49;;;;;;;;;;;;;;;;;;6234522;22;20358;-88
2022/11/02 09:44:18;;;;;;;;;;;;;;;;;;6234748;22;19946;-88
2022/11/02 09:46:44;;;;;;;;;;;;;;;;;;6258437;22;19916;-89
2022/11/02 09:49:10;;;;;;;;;;;;;;;;;;6235961;22;19919;-89
2022/11/02 09:51:38;;;;;;;;;;;;;;;;;;6238680;22;19934;-89
2022/11/02 09:54:10;;;;;;;;;;;;;;;;;;6262617;22;20683;-90
2022/11/02 09:56:39;;;;;;;;;;;;;;;;;;6263227;22;19919;-89
2022/11/02 09:59:05;;;;;;;;;;;;;;;;;;6239377;22;19926;-90
2022/11/02 10:01:34;;;;;;;;;;;;;;;;;;6235044;22;19936;-89
2022/11/02 10:04:03;;;;;;;;;;;;;;;;;;6258262;22;19919;-89
2022/11/02 10:06:36;;;;;;;;;;;;;;;;;;6258915;22;19926;-90
2022/11/02 10:09:11;;;;;;;;;;;;;;;;;;6263624;22;19922;-89
2022/11/02 10:11:37;;;;;;;;;;;;;;;;;;6238914;22;19929;-90
2022/11/02 10:14:03;;;;;;;;;;;;;;;;;;6263790;22;19955;-91
2022/11/02 10:16:29;;;;;;;;;;;;;;;;;;6236314;22;19919;-91
2022/11/02 10:19:01;;;;;;;;;;;;;;;;;;6237706;22;19920;-91
2022/11/02 10:21:30;;;;;;;;;;;;;;;;;;6235996;22;19931;-91
2022/11/02 10:23:59;;;;;;;;;;;;;;;;;;6264122;22;20327;-90
2022/11/02 10:26:25;;;;;;;;;;;;;;;;;;6260653;22;20470;-91
2022/11/02 10:28:57;;;;;;;;;;;;;;;;;;6238625;22;19946;-89
2022/11/02 10:31:26;;;;;;;;;;;;;;;;;;6233220;22;20343;-90
2022/11/02 10:33:52;;;;;;;;;;;;;;;;;;6262665;22;19919;-89
2022/11/02 10:36:18;;;;;;;;;;;;;;;;;;6261357;22;19930;-89
2022/11/02 10:38:44;;;;;;;;;;;;;;;;;;6263640;22;20458;-90
2022/11/02 10:41:10;;;;;;;;;;;;;;;;;;6260709;22;19916;-88
2022/11/02 10:43:35;;;;;;;;;;;;;;;;;;6231632;22;19981;-88
2022/11/02 10:46:01;;;;;;;;;;;;;;;;;;6261009;22;19965;-90
2022/11/02 10:48:27;;;;;;;;;;;;;;;;;;6257505;22;19958;-88
2022/11/02 10:50:53;;;;;;;;;;;;;;;;;;6261766;22;20406;-87
2022/11/02 10:53:20;;;;;;;;;;;;;;;;;;6232233;22;19919;-87
2022/11/02 10:55:46;;;;;;;;;;;;;;;;;;6238337;22;19927;-88
2022/11/02 10:58:12;;;;;;;;;;;;;;;;;;6232892;22;19919;-87
2022/11/02 11:00:38;;;;;;;;;;;;;;;;;;6232813;22;19919;-87
2022/11/02 11:03:04;;;;;;;;;;;;;;;;;;6263997;22;19926;-87
2022/11/02 11:05:30;;;;;;;;;;;;;;;;;;6261281;22;19942;-86
2022/11/02 11:07:56;;;;;;;;;;;;;;;;;;6262233;22;19965;-87
2022/11/02 11:10:22;;;;;;;;;;;;;;;;;;6261156;22;19981;-86
2022/11/02 11:12:48;;;;;;;;;;;;;;;;;;6243907;22;19919;-86
2022/11/02 11:15:14;;;;;;;;;;;;;;;;;;6256362;22;19919;-86
2022/11/02 11:17:40;;;;;;;;;;;;;;;;;;6258190;22;19942;-86
2022/11/02 11:20:09;;;;;;;;;;;;;;;;;;6261829;22;19979;-87
2022/11/02 11:22:35;;;;;;;;;;;;;;;;;;6262490;22;19899;-87
2022/11/02 11:25:01;;;;;;;;;;;;;;;;;;6246427;22;20504;-87
2022/11/02 11:27:27;;;;;;;;;;;;;;;;;;6237371;22;20010;-87
2022/11/02 11:29:53;;;;;;;;;;;;;;;;;;6264383;22;19919;-88
2022/11/02 11:32:19;;;;;;;;;;;;;;;;;;6265712;22;19931;-87
2022/11/02 11:34:45;;;;;;;;;;;;;;;;;;6234961;22;19919;-87
2022/11/02 11:37:11;;;;;;;;;;;;;;;;;;6235603;22;19950;-88
2022/11/02 11:39:37;;;;;;;;;;;;;;;;;;6242177;22;19941;-87
2022/11/02 11:42:04;;;;;;;;;;;;;;;;;;6237883;22;19957;-88
2022/11/02 11:44:30;;;;;;;;;;;;;;;;;;6235655;22;19915;-88
2022/11/02 11:46:56;;;;;;;;;;;;;;;;;;6261701;22;19984;-88
2022/11/02 11:49:22;;;;;;;;;;;;;;;;;;6232388;22;20347;-87
2022/11/02 11:51:48;;;;;;;;;;;;;;;;;;6264428;22;19944;-87
2022/11/02 11:54:14;;;;;;;;;;;;;;;;;;6262620;22;20312;-88
2022/11/02 11:56:40;;;;;;;;;;;;;;;;;;6265442;22;19969;-87
2022/11/02 11:59:09;;;;;;;;;;;;;;;;;;6268018;22;19924;-87
2022/11/02 12:01:35;;;;;;;;;;;;;;;;;;6279374;22;19919;-87
2022/11/02 12:04:01;;;;;;;;;;;;;;;;;;6239907;22;20012;-88
2022/11/02 12:06:27;;;;;;;;;;;;;;;;;;6260496;22;19942;-88
2022/11/02 12:08:53;;;;;;;;;;;;;;;;;;6238491;22;19919;-88
2022/11/02 12:11:19;;;;;;;;;;;;;;;;;;6258902;22;19923;-88
2022/11/02 12:13:45;;;;;;;;;;;;;;;;;;6264536;22;19927;-88
2022/11/02 12:16:11;;;;;;;;;;;;;;;;;;6260582;22;19919;-88
2022/11/02 12:18:37;;;;;;;;;;;;;;;;;;6262977;22;19919;-88
2022/11/02 12:21:04;;;;;;;;;;;;;;;;;;6238320;22;19919;-88
2022/11/02 12:23:30;;;;;;;;;;;;;;;;;;6261196;22;19926;-87
2022/11/02 12:25:56;;;;;;;;;;;;;;;;;;6239518;22;19919;-88
2022/11/02 12:28:22;;;;;;;;;;;;;;;;;;6261970;22;19926;-88
2022/11/02 12:30:48;;;;;;;;;;;;;;;;;;6263372;22;20677;-88
2022/11/02 12:33:14;;;;;;;;;;;;;;;;;;6261796;22;19919;-88
2022/11/02 12:35:40;;;;;;;;;;;;;;;;;;6264189;22;19919;-88
2022/11/02 12:38:08;;;;;;;;;;;;;;;;;;6263981;22;20002;-88
2022/11/02 12:40:34;;;;;;;;;;;;;;;;;;6236445;22;19919;-88
2022/11/02 12:43:00;;;;;;;;;;;;;;;;;;6263071;22;19961;-88
2022/11/02 12:45:26;;;;;;;;;;;;;;;;;;6235753;22;19923;-88
2022/11/02 12:47:52;;;;;;;;;;;;;;;;;;6263514;22;19915;-88
2022/11/02 12:50:18;;;;;;;;;;;;;;;;;;6237249;22;19982;-88
2022/11/02 12:52:44;;;;;;;;;;;;;;;;;;6237718;22;19920;-88
2022/11/02 12:55:10;;;;;;;;;;;;;;;;;;6237327;22;19945;-88
2022/11/02 12:57:36;;;;;;;;;;;;;;;;;;6271061;22;19919;-88
2022/11/02 13:00:03;;;;;;;;;;;;;;;;;;6264136;22;19915;-88
2022/11/02 13:02:29;;;;;;;;;;;;;;;;;;6262444;22;19923;-88
2022/11/02 13:04:55;;;;;;;;;;;;;;;;;;6264379;22;19986;-88
2022/11/02 13:07:20;;;;;;;;;;;;;;;;;;6261442;22;19919;-88
2022/11/02 13:09:46;;;;;;;;;;;;;;;;;;6273181;22;20248;-87
2022/11/02 13:12:13;;;;;;;;;;;;;;;;;;6263748;22;19958;-88
2022/11/02 13:14:40;;;;;;;;;;;;;;;;;;6265201;22;20414;-88
2022/11/02 13:17:08;;;;;;;;;;;;;;;;;;6263789;22;19923;-88
2022/11/02 13:19:34;;;;;;;;;;;;;;;;;;6266870;22;19937;-88
2022/11/02 13:22:03;;;;;;;;;;;;;;;;;;6264139;22;19949;-87
2022/11/02 13:24:29;;;;;;;;;;;;;;;;;;6237660;22;19976;-88
2022/11/02 13:26:55;;;;;;;;;;;;;;;;;;6262933;22;19997;-88
2022/11/02 13:29:21;;;;;;;;;;;;;;;;;;6235846;22;19926;-88
2022/11/02 13:31:47;;;;;;;;;;;;;;;;;;6236568;22;19923;-89
2022/11/02 13:34:16;;;;;;;;;;;;;;;;;;6236049;22;19956;-87
2022/11/02 13:36:42;;;;;;;;;;;;;;;;;;6237851;22;19972;-87
2022/11/02 13:39:09;;;;;;;;;;;;;;;;;;6262845;22;19946;-89
2022/11/02 13:41:35;;;;;;;;;;;;;;;;;;6235955;22;19989;-88
2022/11/02 13:44:01;;;;;;;;;;;;;;;;;;6238455;22;19958;-88
2022/11/02 13:46:27;;;;;;;;;;;;;;;;;;6263369;22;19938;-88
2022/11/02 13:48:53;;;;;;;;;;;;;;;;;;6258104;22;19915;-87
2022/11/02 13:51:19;;;;;;;;;;;;;;;;;;6262669;22;19926;-89
2022/11/02 13:53:44;;;;;;;;;;;;;;;;;;6238921;22;20276;-88
2022/11/02 13:56:10;;;;;;;;;;;;;;;;;;6267784;22;19918;-88
2022/11/02 13:58:36;;;;;;;;;;;;;;;;;;6269933;22;19984;-87
2022/11/02 14:01:02;;;;;;;;;;;;;;;;;;6268589;22;20651;-87
2022/11/02 14:03:28;;;;;;;;;;;;;;;;;;6265510;22;19918;-87
2022/11/02 14:05:54;;;;;;;;;;;;;;;;;;6269023;22;19918;-87
2022/11/02 14:08:20;;;;;;;;;;;;;;;;;;6268707;22;20255;-87
2022/11/02 14:10:48;;;;;;;;;;;;;;;;;;6269130;22;21392;-88
2022/11/02 14:13:16;;;;;;;;;;;;;;;;;;6242442;22;19972;-87
2022/11/02 14:15:44;;;;;;;;;;;;;;;;;;6268132;22;19925;-87
2022/11/02 14:18:10;;;;;;;;;;;;;;;;;;6244291;22;19918;-87
2022/11/02 14:20:36;;;;;;;;;;;;;;;;;;6245613;22;20294;-87
2022/11/02 14:23:02;;;;;;;;;;;;;;;;;;6271086;22;19915;-87
2022/11/02 14:25:28;;;;;;;;;;;;;;;;;;6267317;22;20173;-87
2022/11/02 14:27:54;;;;;;;;;;;;;;;;;;6244961;22;20310;-87
2022/11/02 14:30:20;;;;;;;;;;;;;;;;;;6241313;22;19921;-87
2022/11/02 14:32:46;;;;;;;;;;;;;;;;;;6244797;22;19993;-87
2022/11/02 14:35:12;;;;;;;;;;;;;;;;;;6263580;22;19918;-84
2022/11/02 14:37:38;;;;;;;;;;;;;;;;;;6269510;22;19919;-84
2022/11/02 14:40:04;;;;;;;;;;;;;;;;;;6269120;22;20294;-87
2022/11/02 14:42:30;;;;;;;;;;;;;;;;;;6262811;22;19919;-87
2022/11/02 14:44:56;;;;;;;;;;;;;;;;;;6263396;22;19926;-87
2022/11/02 14:47:23;;;;;;;;;;;;;;;;;;6264870;22;19993;-88
2022/11/02 14:56:25;;;;;;;;;;;;;;;;;;6140437;23;19939;-88
2022/11/02 14:58:58;;;;;;;;;;;;;;;;;;6225940;22;19990;-87
2022/11/02 15:01:26;;;;;;;;;;;;;;;;;;6240628;22;19918;-87
2022/11/02 15:04:09;;;;;;;;;;;;;;;;;;6238339;22;19991;-87
2022/11/02 15:06:43;;;;;;;;;;;;;;;;;;6233897;22;19969;-86
2022/11/02 15:09:14;;;;;;;;;;;;;;;;;;6206205;22;19919;-87
2022/11/02 15:11:40;;;;;;;;;;;;;;;;;;6210107;22;20329;-87
2022/11/02 15:14:09;;;;;;;;;;;;;;;;;;6206711;22;19923;-87
2022/11/02 15:16:35;;;;;;;;;;;;;;;;;;6207920;22;20026;-87
2022/11/02 15:19:14;;;;;;;;;;;;;;;;;;;;;
2022/11/02 15:21:45;;;;;;;;;;;;;;;;;;6229462;22;19919;-86
2022/11/02 15:24:11;;;;;;;;;;;;;;;;;;6207438;22;19927;-86
2022/11/02 15:26:46;;;;;;;;;;;;;;;;;;6233807;22;20434;-86
2022/11/02 15:29:12;;;;;;;;;;;;;;;;;;6233277;22;19915;-86
2022/11/02 15:31:41;;;;;;;;;;;;;;;;;;6242964;22;20235;-87
2022/11/02 15:34:10;;;;;;;;;;;;;;;;;;6236850;22;19987;-87
2022/11/02 15:36:36;;;;;;;;;;;;;;;;;;6239336;22;19975;-87
2022/11/02 15:39:11;;;;;;;;;;;;;;;;;;6243195;22;20289;-86
2022/11/02 15:41:40;;;;;;;;;;;;;;;;;;6243696;22;20668;-87
2022/11/02 15:44:09;;;;;;;;;;;;;;;;;;6242480;22;19922;-86
2022/11/02 15:46:38;;;;;;;;;;;;;;;;;;6265014;22;20335;-88
2022/11/02 15:51:56;;;;;;;;;;;;;;;;;;6199884;23;20015;-87
2022/11/02 15:54:31;;;;;;;;;;;;;;;;;;6170700;23;19924;-86
2022/11/02 16:00:48;;;;;;;;;;;;;;;;;;6176283;23;19920;-86
2022/11/02 16:03:38;;;;;;;;;;;;;;;;;;;;;
2022/11/02 16:06:07;;;;;;;;;;;;;;;;;;6200902;23;19926;-86
2022/11/02 16:08:33;;;;;;;;;;;;;;;;;;6196396;23;19919;-86
2022/11/02 16:11:15;;;;;;;;;;;;;;;;;;6176452;23;19920;-87
2022/11/02 16:13:55;;;;;;;;;;;;;;;;;;6177503;23;19976;-86
2022/11/02 16:20:18;;;;;;;;;;;;;;;;;;;;;
2022/11/02 16:22:45;;;;;;;;;;;;;;;;;;6218167;22;19918;-87
2022/11/02 16:25:11;;;;;;;;;;;;;;;;;;6227548;22;19919;-87
2022/11/02 16:27:37;;;;;;;;;;;;;;;;;;6232596;22;20329;-86
2022/11/02 16:30:06;;;;;;;;;;;;;;;;;;6234408;22;19994;-87
2022/11/02 16:32:34;;;;;;;;;;;;;;;;;;6235102;22;19926;-87
2022/11/02 16:35:05;;;;;;;;;;;;;;;;;;6233725;22;20385;-87
2022/11/02 16:37:31;;;;;;;;;;;;;;;;;;6232490;22;19919;-87
2022/11/02 16:39:57;;;;;;;;;;;;;;;;;;6233389;22;19969;-87
2022/11/02 16:42:23;;;;;;;;;;;;;;;;;;6266172;22;20336;-87
2022/11/02 16:44:49;;;;;;;;;;;;;;;;;;6268156;22;19915;-87
2022/11/02 16:47:15;;;;;;;;;;;;;;;;;;6264737;22;19919;-87
2022/11/02 16:49:44;;;;;;;;;;;;;;;;;;6268864;22;19941;-86
2022/11/02 16:52:10;;;;;;;;;;;;;;;;;;6268114;22;20044;-87
2022/11/02 16:54:37;;;;;;;;;;;;;;;;;;6296854;22;19976;-87
2022/11/02 16:57:09;;;;;;;;;;;;;;;;;;6268722;22;20373;-87
2022/11/02 16:59:35;;;;;;;;;;;;;;;;;;6262386;22;19918;-88
2022/11/02 17:02:01;;;;;;;;;;;;;;;;;;6268613;22;19930;-87
2022/11/02 17:04:27;;;;;;;;;;;;;;;;;;6242344;22;19994;-85
2022/11/02 17:06:53;;;;;;;;;;;;;;;;;;6269864;22;19973;-86
2022/11/02 17:09:19;;;;;;;;;;;;;;;;;;6267333;22;20018;-86
2022/11/02 17:11:45;;;;;;;;;;;;;;;;;;6269957;22;19919;-86
2022/11/02 17:14:11;;;;;;;;;;;;;;;;;;6269232;22;20409;-86
2022/11/02 17:16:37;;;;;;;;;;;;;;;;;;6269808;22;20242;-87